Hattiesburg Laurel Regional Airport Hattiesburg,Laurel US
ICAO: KPIB
IATA: PIB
Category: Medium
Scheduled Services: Yes

Elevation: 298 ft
TransAlt. 18000 ft.

Airport Communications:
AWOS 3:128.325
HOUSTON CNTR:126.8
CTAF/UNICOM:123

KPIB Zoom In..

If Map Doesn't Load, Click Here

Runways:

(A) RW 18 length 6502 ft width 150 ft
ILS 109.50 / hdg 181

(B) RW 36 length 6502 ft width 150 ft
---- / hdg 1

Location; KPIB
Day. 26 / Time. 09.56 Zulu
* Altimeter: 30.05
* Temperature: 23° c. 73.4°f.
* Wind from: 000° Speed 00 kn.
Dewpoint: 23° c.
Visibility: 6 Statute Miles.
Clouds: Few 1200 ft.
Conditions: Mist.

KPIB 260956Z AUTO 00000KT 6SM BR FEW012 23/23 A3005 RMK AO2 SLP174 T02330228 PNO $


Wind - Calm.

 
 
jpsmedia.com for Web Design worldairports.se 2018   terms of use